Princeton, Iowa
Current Conditions -  °F | °C
As of 5:35 PM on Saturday 20 Dec 2014 (Local Time) from KCWI Reporting Station
Broken Clouds Broken Clouds  
Wind Chill: 25°   Ceiling: 1900
Heat Index: 32°   Visibility: 8mi
Dew Point: 27°   Wind: 8mph
Humidity: 80%   Direction: 150°SSE
Pressure: 30.24"   Gusts: NA
Location:  41.68°N, 90.34°W
Report Text: KCWI 202335Z AUTO 15007KT 8SM BKN019 00/M03 A3024 RMK AO1
Loading
Personal Weather Stations






























Interactive Weather Map New forecast layout! Learn more

10-Day Weather Forecast

Advertisements
Track Severe Weather on mobile